createdAt,value
2019-05-20T00:01:25.464Z,12.35
2019-05-20T00:03:54.690Z,12.95
2019-05-20T00:06:23.911Z,11.90
2019-05-20T00:08:53.134Z,13.65
2019-05-20T00:11:22.350Z,11.10
2019-05-20T00:13:51.486Z,11.73
2019-05-20T00:16:21.491Z,15.18
2019-05-20T00:18:50.697Z,12.80
2019-05-20T00:21:19.847Z,11.10
2019-05-20T00:23:49.072Z,10.75
2019-05-20T00:26:18.342Z,11.60
2019-05-20T00:28:47.707Z,11.22
2019-05-20T00:31:17.013Z,10.65
2019-05-20T00:33:46.243Z,11.97
2019-05-20T00:36:15.482Z,11.20
2019-05-20T00:38:48.269Z,12.70
2019-05-20T00:41:17.497Z,12.20
2019-05-20T00:43:46.733Z,13.65
2019-05-20T00:46:15.935Z,10.60
2019-05-20T00:48:45.187Z,12.07
2019-05-20T00:51:14.394Z,17.00
2019-05-20T00:53:43.528Z,11.38
2019-05-20T00:56:12.826Z,9.88
2019-05-20T00:58:42.116Z,11.53
2019-05-20T01:01:11.415Z,13.88
2019-05-20T01:03:40.634Z,13.13
2019-05-20T01:06:09.845Z,12.95
2019-05-20T01:08:39.090Z,11.73
2019-05-20T01:11:08.397Z,15.58
2019-05-20T01:13:37.642Z,12.75
2019-05-20T01:16:06.857Z,12.43
2019-05-20T01:18:36.058Z,11.10
2019-05-20T01:21:05.311Z,12.98
2019-05-20T01:23:34.527Z,13.98
2019-05-20T01:26:04.035Z,12.75
2019-05-20T01:28:33.245Z,10.68
2019-05-20T01:31:02.411Z,13.13
2019-05-20T01:33:31.642Z,11.33
2019-05-20T01:36:00.874Z,13.60
2019-05-20T01:38:30.103Z,11.08
2019-05-20T01:40:59.306Z,12.25
2019-05-20T01:43:28.437Z,13.95
2019-05-20T01:45:57.674Z,13.28
2019-05-20T01:48:26.915Z,11.73
2019-05-20T01:50:56.165Z,11.55
2019-05-20T01:53:25.466Z,12.10
2019-05-20T01:55:54.717Z,11.20
2019-05-20T01:58:24.923Z,12.35
2019-05-20T02:00:54.245Z,12.90
2019-05-20T02:03:31.668Z,13.43
2019-05-20T02:05:54.462Z,11.90
2019-05-20T02:08:23.670Z,10.70
2019-05-20T02:10:56.301Z,10.93
2019-05-20T02:13:26.230Z,12.78
2019-05-20T02:16:05.025Z,12.15
2019-05-20T02:18:34.233Z,11.25
2019-05-20T02:21:05.683Z,14.20
2019-05-20T02:23:34.977Z,14.53
2019-05-20T02:26:04.223Z,11.60
2019-05-20T02:28:33.453Z,11.68
2019-05-20T02:31:02.668Z,13.78
2019-05-20T02:33:50.133Z,12.43
2019-05-20T02:36:02.808Z,12.03
2019-05-20T02:38:32.035Z,12.65
2019-05-20T02:41:01.531Z,11.48
2019-05-20T02:43:30.900Z,10.78
2019-05-20T02:46:00.279Z,14.75
2019-05-20T02:48:29.559Z,13.88
2019-05-20T02:50:58.871Z,11.15
2019-05-20T02:53:28.144Z,12.30
2019-05-20T02:55:57.833Z,12.73
2019-05-20T02:58:29.081Z,12.98
2019-05-20T03:01:06.385Z,13.83
2019-05-20T03:03:35.674Z,11.12
2019-05-20T03:06:04.974Z,12.63
2019-05-20T03:08:34.238Z,12.10
2019-05-20T03:11:03.555Z,12.98
2019-05-20T03:13:32.840Z,12.47
2019-05-20T03:16:02.080Z,12.88
2019-05-20T03:18:31.442Z,14.60
2019-05-20T03:21:26.880Z,13.20
2019-05-20T03:23:56.087Z,12.23
2019-05-20T03:26:25.417Z,12.63
2019-05-20T03:28:55.475Z,12.93
2019-05-20T03:31:26.055Z,15.72
2019-05-20T03:33:55.264Z,14.10
2019-05-20T03:36:24.769Z,14.03
2019-05-20T03:38:54.185Z,12.85
2019-05-20T03:41:23.663Z,15.35
2019-05-20T03:43:52.939Z,15.43
2019-05-20T03:46:22.209Z,16.15
2019-05-20T03:48:51.783Z,17.98
2019-05-20T03:51:21.004Z,15.60
2019-05-20T03:53:50.302Z,19.25
2019-05-20T03:56:24.704Z,15.10
2019-05-20T03:58:55.032Z,16.40
2019-05-20T04:01:24.191Z,15.45
2019-05-20T04:03:53.408Z,15.53
2019-05-20T04:06:22.652Z,14.43
2019-05-20T04:08:51.866Z,16.30
2019-05-20T04:11:21.098Z,14.75
2019-05-20T04:13:50.351Z,14.38
2019-05-20T04:16:19.574Z,13.35
2019-05-20T04:18:48.826Z,14.33
2019-05-20T04:21:18.032Z,15.45
2019-05-20T04:23:47.386Z,21.75
2019-05-20T04:26:16.714Z,15.90
2019-05-20T04:28:45.943Z,17.30
2019-05-20T04:31:15.306Z,13.55
2019-05-20T04:33:45.235Z,21.62
2019-05-20T04:36:14.460Z,19.10
2019-05-20T04:38:43.697Z,15.85
2019-05-20T04:41:13.021Z,16.10
2019-05-20T04:43:43.283Z,23.98
2019-05-20T04:46:13.067Z,17.00
2019-05-20T04:48:42.351Z,23.47
2019-05-20T04:51:11.586Z,25.70
2019-05-20T04:53:40.808Z,22.30
2019-05-20T04:56:10.042Z,16.87
2019-05-20T04:58:39.243Z,18.73
2019-05-20T05:01:10.068Z,19.77
2019-05-20T05:03:40.542Z,18.85
2019-05-20T05:06:11.206Z,16.30
2019-05-20T05:08:40.455Z,21.75
2019-05-20T05:11:09.842Z,15.68
2019-05-20T05:13:39.247Z,16.57
2019-05-20T05:16:08.715Z,22.27
2019-05-20T05:18:38.091Z,15.30
2019-05-20T05:21:07.383Z,19.05
2019-05-20T05:23:36.801Z,19.98
2019-05-20T05:26:06.296Z,18.48
2019-05-20T05:28:35.804Z,16.07
2019-05-20T05:31:05.028Z,14.75
2019-05-20T05:33:34.382Z,17.42
2019-05-20T05:36:03.781Z,17.55
2019-05-20T05:38:32.994Z,17.48
2019-05-20T05:41:02.235Z,13.75
2019-05-20T05:43:31.430Z,22.80
2019-05-20T05:46:00.686Z,15.80
2019-05-20T05:48:29.906Z,17.50
2019-05-20T05:50:59.134Z,17.62
2019-05-20T05:53:28.293Z,17.80
2019-05-20T05:55:57.596Z,18.90
2019-05-20T05:58:26.893Z,17.45
2019-05-20T06:00:57.378Z,22.95
2019-05-20T06:03:28.013Z,20.70
2019-05-20T06:06:11.419Z,23.95
2019-05-20T06:08:28.623Z,19.45
2019-05-20T06:10:58.172Z,20.45
2019-05-20T06:13:27.511Z,16.27
2019-05-20T06:15:56.781Z,13.88
2019-05-20T06:18:26.063Z,16.67
2019-05-20T06:20:55.319Z,21.82
2019-05-20T06:23:24.514Z,14.65
2019-05-20T06:25:54.123Z,17.70
2019-05-20T06:28:23.505Z,13.95
2019-05-20T06:30:52.983Z,18.50
2019-05-20T06:33:22.371Z,13.43
2019-05-20T06:35:51.783Z,17.52
2019-05-20T06:38:43.081Z,14.00
2019-05-20T06:41:12.383Z,16.62
2019-05-20T06:43:41.681Z,15.03
2019-05-20T06:46:10.911Z,18.35
2019-05-20T06:48:40.155Z,15.60
2019-05-20T06:51:09.670Z,14.43
2019-05-20T06:53:38.910Z,17.50
2019-05-20T06:56:08.226Z,15.20
2019-05-20T06:58:37.456Z,15.93
2019-05-20T07:01:06.701Z,17.57
2019-05-20T07:03:35.972Z,25.27
2019-05-20T07:06:05.288Z,14.15
2019-05-20T07:08:34.537Z,17.35
2019-05-20T07:11:03.957Z,13.98
2019-05-20T07:13:33.177Z,15.53
2019-05-20T07:16:02.522Z,13.85
2019-05-20T07:18:31.738Z,14.90
2019-05-20T07:21:00.983Z,12.58
2019-05-20T07:23:31.890Z,18.05
2019-05-20T07:26:01.150Z,13.35
2019-05-20T07:28:30.397Z,13.65
2019-05-20T07:30:59.666Z,13.50
2019-05-20T07:33:29.006Z,12.53
2019-05-20T07:35:58.317Z,11.25
2019-05-20T07:38:27.559Z,13.25
2019-05-20T07:40:56.805Z,13.40
2019-05-20T07:43:26.112Z,13.60
2019-05-20T07:45:55.522Z,16.48
2019-05-20T07:48:24.991Z,15.90
2019-05-20T07:50:54.952Z,13.45
2019-05-20T07:53:24.669Z,16.02
2019-05-20T07:56:07.123Z,14.58
2019-05-20T07:58:38.816Z,14.35
2019-05-20T08:01:08.154Z,13.70
2019-05-20T08:03:38.696Z,12.68
2019-05-20T08:06:08.177Z,12.85
2019-05-20T08:08:37.379Z,12.78
2019-05-20T08:11:06.851Z,13.72
2019-05-20T08:13:36.052Z,11.12
2019-05-20T08:16:06.086Z,15.68
2019-05-20T08:18:35.387Z,11.95
2019-05-20T08:21:04.930Z,18.92
2019-05-20T08:23:34.296Z,16.82
2019-05-20T08:26:03.678Z,12.20
2019-05-20T08:28:32.960Z,13.62
2019-05-20T08:31:02.304Z,13.98
2019-05-20T08:33:31.690Z,14.98
2019-05-20T08:36:00.937Z,17.42
2019-05-20T08:38:30.228Z,16.30
2019-05-20T08:40:59.457Z,19.80
2019-05-20T08:43:28.703Z,13.75
2019-05-20T08:45:58.088Z,16.42
2019-05-20T08:48:27.390Z,20.65
2019-05-20T08:50:57.139Z,13.40
2019-05-20T08:53:26.347Z,12.37
2019-05-20T08:55:55.594Z,16.07
2019-05-20T08:58:24.813Z,14.33
2019-05-20T09:00:54.055Z,14.90
2019-05-20T09:03:23.341Z,12.05
2019-05-20T09:05:52.602Z,14.73
2019-05-20T09:08:21.804Z,12.70
2019-05-20T09:10:51.057Z,12.80
2019-05-20T09:13:20.275Z,14.83
2019-05-20T09:15:49.530Z,13.70
2019-05-20T09:18:18.913Z,11.93
2019-05-20T09:20:48.214Z,15.30
2019-05-20T09:23:17.423Z,12.03
2019-05-20T09:25:46.851Z,12.20
2019-05-20T09:28:16.183Z,14.40
2019-05-20T09:30:45.469Z,13.62
2019-05-20T09:33:16.315Z,20.88
2019-05-20T09:35:45.918Z,15.00
2019-05-20T09:38:20.830Z,15.30
2019-05-20T09:40:48.868Z,16.93
2019-05-20T09:43:18.296Z,16.32
2019-05-20T09:46:05.277Z,17.52
2019-05-20T09:48:18.595Z,17.82
2019-05-20T09:50:47.959Z,19.00
2019-05-20T09:53:17.334Z,13.35
2019-05-20T09:55:46.626Z,14.70
2019-05-20T09:58:15.976Z,16.42
2019-05-20T10:00:46.662Z,24.40
2019-05-20T10:03:16.755Z,16.85
2019-05-20T10:05:46.505Z,14.65
2019-05-20T10:08:15.755Z,15.65
2019-05-20T10:10:46.051Z,12.50
2019-05-20T10:13:15.504Z,15.70
2019-05-20T10:15:44.930Z,14.58
2019-05-20T10:18:14.355Z,12.60
2019-05-20T10:20:43.680Z,10.58
2019-05-20T10:23:15.793Z,10.80
2019-05-20T10:25:43.860Z,10.40
2019-05-20T10:28:13.055Z,11.45
2019-05-20T10:30:42.429Z,15.25
2019-05-20T10:33:11.662Z,9.85
2019-05-20T10:35:41.584Z,11.10
2019-05-20T10:38:10.822Z,10.03
2019-05-20T10:40:40.128Z,11.68
2019-05-20T10:43:09.334Z,13.98
2019-05-20T10:45:38.699Z,11.15
2019-05-20T10:48:08.909Z,14.55
2019-05-20T10:50:38.516Z,12.25
2019-05-20T10:53:07.741Z,16.17
2019-05-20T10:55:38.157Z,11.25
2019-05-20T10:58:07.464Z,15.05
2019-05-20T11:00:36.797Z,13.58
2019-05-20T11:03:06.001Z,11.40
2019-05-20T11:05:35.292Z,12.30
2019-05-20T11:08:04.577Z,15.80
2019-05-20T11:10:33.878Z,15.18
2019-05-20T11:13:03.541Z,12.43
2019-05-20T11:15:33.026Z,12.40
2019-05-20T11:18:02.419Z,13.53
2019-05-20T11:20:31.654Z,16.80
2019-05-20T11:23:01.315Z,15.72
2019-05-20T11:25:30.876Z,17.60
2019-05-20T11:28:00.240Z,13.05
2019-05-20T11:30:29.650Z,13.20
2019-05-20T11:32:59.141Z,14.43
2019-05-20T11:35:28.483Z,15.75
2019-05-20T11:37:59.446Z,14.40
2019-05-20T11:40:28.714Z,14.10
2019-05-20T11:42:57.977Z,16.65
2019-05-20T11:45:27.219Z,15.75
2019-05-20T11:47:56.451Z,15.50
2019-05-20T11:50:25.791Z,21.93
2019-05-20T11:52:57.445Z,14.58
2019-05-20T11:55:26.752Z,14.85
2019-05-20T11:57:55.959Z,14.58
2019-05-20T12:00:25.618Z,18.23
2019-05-20T12:02:54.804Z,16.42
2019-05-20T12:05:24.086Z,16.42
2019-05-20T12:07:53.744Z,14.20
2019-05-20T12:10:24.539Z,16.55
2019-05-20T12:12:53.837Z,14.40
2019-05-20T12:15:24.238Z,13.43
2019-05-20T12:17:53.478Z,15.68
2019-05-20T12:20:22.814Z,18.87
2019-05-20T12:22:52.055Z,18.23
2019-05-20T12:25:21.291Z,18.75
2019-05-20T12:27:50.531Z,17.80
2019-05-20T12:30:20.279Z,17.15
2019-05-20T12:32:50.723Z,18.52
2019-05-20T12:35:20.803Z,17.85
2019-05-20T12:37:52.824Z,20.15
2019-05-20T12:40:22.282Z,19.37
2019-05-20T12:42:51.410Z,20.62
2019-05-20T12:45:20.866Z,19.82
2019-05-20T12:47:50.933Z,26.05
2019-05-20T12:50:20.934Z,21.02
2019-05-20T12:52:50.457Z,22.52
2019-05-20T12:55:19.835Z,20.97
2019-05-20T12:57:49.394Z,21.10
2019-05-20T13:00:19.279Z,22.75
2019-05-20T13:02:48.513Z,26.68
2019-05-20T13:05:17.942Z,21.02
2019-05-20T13:07:48.221Z,22.80
2019-05-20T13:10:29.171Z,26.17
2019-05-20T13:12:51.134Z,29.02
2019-05-20T13:15:21.518Z,25.20
2019-05-20T13:17:50.825Z,24.63
2019-05-20T13:20:21.736Z,27.80
2019-05-20T13:22:51.715Z,25.80
2019-05-20T13:25:21.054Z,27.00
2019-05-20T13:27:50.422Z,24.77
2019-05-20T13:30:19.913Z,23.95
2019-05-20T13:32:49.170Z,25.60
2019-05-20T13:35:18.585Z,24.25
2019-05-20T13:37:47.941Z,24.52
2019-05-20T13:40:18.057Z,24.30
2019-05-20T13:42:47.320Z,22.77
2019-05-20T13:45:16.671Z,24.67
2019-05-20T13:47:45.968Z,27.65
2019-05-20T13:50:15.451Z,25.75
2019-05-20T13:52:47.027Z,24.50
2019-05-20T13:55:17.114Z,26.77
2019-05-20T13:57:46.657Z,22.07
2019-05-20T14:00:17.531Z,22.48
2019-05-20T14:02:46.827Z,27.73
2019-05-20T14:05:16.231Z,21.05
2019-05-20T14:07:45.845Z,29.12
2019-05-20T14:10:17.741Z,7.97
2019-05-20T14:12:46.949Z,7.62
2019-05-20T14:15:16.715Z,6.90
2019-05-20T14:17:45.989Z,6.30
2019-05-20T14:20:15.532Z,3.17
2019-05-20T14:22:44.766Z,10.25
2019-05-20T14:25:15.195Z,3.95
2019-05-20T14:27:44.407Z,5.17
2019-05-20T14:30:14.254Z,4.92
2019-05-20T14:32:43.846Z,6.53
2019-05-20T14:35:13.325Z,2.45
2019-05-20T14:37:42.652Z,4.28
2019-05-20T14:40:12.893Z,6.05
2019-05-20T14:42:42.278Z,4.30
2019-05-20T14:45:11.855Z,6.85
2019-05-20T14:47:42.220Z,4.22
2019-05-20T14:50:13.373Z,5.83
2019-05-20T14:52:42.689Z,3.92
2019-05-20T14:55:12.143Z,6.80
2019-05-20T14:57:41.412Z,10.43
2019-05-20T15:00:13.541Z,3.80
2019-05-20T15:02:44.785Z,5.00
2019-05-20T15:05:14.310Z,3.08
2019-05-20T15:07:43.856Z,7.47
2019-05-20T15:10:15.062Z,3.37
2019-05-20T15:12:44.419Z,8.90
2019-05-20T15:15:17.072Z,5.60
2019-05-20T15:17:47.862Z,3.70
2019-05-20T15:20:18.446Z,2.90
2019-05-20T15:22:49.222Z,4.78
2019-05-20T15:25:18.942Z,2.65
2019-05-20T15:27:49.949Z,2.75
2019-05-20T15:30:31.521Z,6.12
2019-05-20T15:33:00.370Z,2.92
2019-05-20T15:35:31.232Z,3.00
2019-05-20T15:38:00.458Z,4.25
2019-05-20T15:40:29.704Z,4.30
2019-05-20T15:42:58.996Z,2.65
2019-05-20T15:45:28.308Z,9.13
2019-05-20T15:51:15.558Z,3.75
2019-05-20T15:53:47.148Z,3.00
2019-05-20T15:56:16.661Z,5.00
2019-05-20T15:58:46.048Z,6.25
2019-05-20T16:01:15.459Z,3.65
2019-05-20T16:03:45.805Z,9.28
2019-05-20T16:06:17.554Z,3.55
2019-05-20T16:08:47.070Z,5.67
2019-05-20T16:11:16.374Z,4.20
2019-05-20T16:14:08.434Z,12.30
2019-05-20T16:16:37.712Z,3.33
2019-05-20T16:19:12.514Z,3.10
2019-05-20T16:21:47.552Z,5.37
2019-05-20T16:24:13.916Z,3.50
2019-05-20T16:26:43.373Z,3.95
2019-05-20T16:29:12.635Z,3.62
2019-05-20T16:31:41.964Z,3.20
2019-05-20T16:34:11.175Z,3.72
2019-05-20T16:36:40.473Z,5.05
2019-05-20T16:39:09.922Z,4.95
2019-05-20T16:41:40.288Z,3.60
2019-05-20T16:44:09.480Z,3.45
2019-05-20T16:46:38.727Z,4.22
2019-05-20T16:49:08.458Z,5.55
2019-05-20T16:51:37.771Z,4.33
2019-05-20T16:54:09.458Z,9.58
2019-05-20T16:56:38.769Z,5.50
2019-05-20T16:59:09.260Z,8.98
2019-05-20T17:01:46.302Z,6.53
2019-05-20T17:04:09.927Z,5.75
2019-05-20T17:06:39.168Z,5.50
2019-05-20T17:09:08.644Z,4.35
2019-05-20T17:11:39.272Z,8.10
2019-05-20T17:14:10.691Z,4.05
2019-05-20T17:17:14.994Z,6.40
2019-05-20T17:19:44.175Z,4.10
2019-05-20T17:22:17.866Z,4.25
2019-05-20T17:24:47.332Z,4.83
2019-05-20T17:27:19.141Z,8.48
2019-05-20T17:29:48.552Z,5.40
2019-05-20T17:32:17.806Z,6.25
2019-05-20T17:34:47.110Z,5.42
2019-05-20T17:37:16.338Z,5.40
2019-05-20T17:39:46.122Z,5.25
2019-05-20T17:42:16.776Z,4.87
2019-05-20T17:44:46.608Z,5.25
2019-05-20T17:47:15.914Z,7.55
2019-05-20T17:49:45.138Z,5.00
2019-05-20T17:52:14.513Z,5.45
2019-05-20T17:54:44.979Z,4.90
2019-05-20T17:57:14.252Z,5.95
2019-05-20T17:59:46.130Z,5.00
2019-05-20T18:02:28.664Z,6.55
2019-05-20T18:05:00.186Z,5.83
2019-05-20T18:07:30.813Z,5.20
2019-05-20T18:10:01.685Z,5.08
2019-05-20T18:12:32.917Z,7.92
2019-05-20T18:15:05.697Z,9.95
2019-05-20T18:17:35.066Z,6.03
2019-05-20T18:20:05.119Z,4.70
2019-05-20T18:22:50.463Z,5.03
2019-05-20T18:25:20.539Z,5.10
2019-05-20T18:27:49.850Z,4.03
2019-05-20T18:30:22.175Z,5.83
2019-05-20T18:32:51.479Z,4.60
2019-05-20T18:35:23.447Z,4.15
2019-05-20T18:37:53.312Z,4.62
2019-05-20T18:40:22.884Z,4.78
2019-05-20T18:42:52.120Z,6.60
2019-05-20T18:45:22.986Z,8.15
2019-05-20T18:47:52.232Z,7.05
2019-05-20T18:50:22.070Z,5.50
2019-05-20T18:52:51.284Z,5.47
2019-05-20T18:55:22.844Z,5.58
2019-05-20T18:57:52.086Z,4.62
2019-05-20T19:00:22.421Z,6.03
2019-05-20T19:02:51.743Z,4.58
2019-05-20T19:05:23.420Z,5.47
2019-05-20T19:07:52.757Z,5.45
2019-05-20T19:10:22.126Z,6.42
2019-05-20T19:12:53.814Z,6.15
2019-05-20T19:15:24.563Z,7.50
2019-05-20T19:17:54.589Z,6.30
2019-05-20T19:20:24.123Z,6.67
2019-05-20T19:22:53.437Z,9.48
2019-05-20T19:25:35.690Z,10.98
2019-05-20T19:27:53.809Z,7.72
2019-05-20T19:30:23.297Z,7.40
2019-05-20T19:32:52.534Z,7.60
2019-05-20T19:35:21.816Z,7.42
2019-05-20T19:37:51.355Z,12.93
2019-05-20T19:40:20.930Z,9.23
2019-05-20T19:42:50.265Z,8.23
2019-05-20T19:45:19.538Z,6.78
2019-05-20T19:47:48.747Z,7.05
2019-05-20T19:50:18.138Z,9.58
2019-05-20T19:52:47.380Z,9.95
2019-05-20T19:55:18.857Z,7.75
2019-05-20T19:57:47.642Z,11.45
2019-05-20T20:00:17.960Z,7.97
2019-05-20T20:02:47.223Z,7.15
2019-05-20T20:05:16.582Z,6.95
2019-05-20T20:07:45.863Z,8.60
2019-05-20T20:10:15.406Z,16.00
2019-05-20T20:12:44.631Z,7.15
2019-05-20T20:15:19.019Z,12.53
2019-05-20T20:17:48.453Z,10.30
2019-05-20T20:20:18.194Z,11.25
2019-05-20T20:22:48.247Z,8.68
2019-05-20T20:25:18.480Z,9.15
2019-05-20T20:27:47.744Z,10.30
2019-05-20T20:30:17.145Z,7.28
2019-05-20T20:32:47.690Z,11.93
2019-05-20T20:35:17.451Z,8.58
2019-05-20T20:37:47.263Z,9.55
2019-05-20T20:40:17.370Z,11.70
2019-05-20T20:42:46.605Z,7.67
2019-05-20T20:45:15.947Z,8.95
2019-05-20T20:47:45.264Z,10.58
2019-05-20T20:50:16.307Z,8.83
2019-05-20T20:52:45.603Z,7.58
2019-05-20T20:55:15.086Z,11.65
2019-05-20T20:57:44.504Z,8.50
2019-05-20T21:00:14.468Z,8.78
2019-05-20T21:02:52.595Z,9.78
2019-05-20T21:05:14.955Z,9.45
2019-05-20T21:07:44.239Z,8.53
2019-05-20T21:10:13.780Z,8.83
2019-05-20T21:12:42.969Z,9.95
2019-05-20T21:15:12.456Z,11.70
2019-05-20T21:17:44.681Z,10.45
2019-05-20T21:20:14.012Z,9.03
2019-05-20T21:22:44.537Z,9.35
2019-05-20T21:25:14.107Z,8.73
2019-05-20T21:27:43.813Z,10.53
2019-05-20T21:30:13.309Z,9.23
2019-05-20T21:32:42.514Z,10.23
2019-05-20T21:35:11.835Z,17.15
2019-05-20T21:37:41.049Z,11.30
2019-05-20T21:40:10.435Z,12.23
2019-05-20T21:42:39.697Z,8.65
2019-05-20T21:45:09.442Z,9.55
2019-05-20T21:47:38.703Z,11.12
2019-05-20T21:50:08.117Z,10.23
2019-05-20T21:52:37.319Z,8.25
2019-05-20T21:55:06.816Z,9.63
2019-05-20T21:57:36.028Z,8.78
2019-05-20T22:00:06.937Z,9.85
2019-05-20T22:02:36.202Z,9.45
2019-05-20T22:05:05.713Z,9.40
2019-05-20T22:07:35.007Z,9.53
2019-05-20T22:10:27.119Z,8.40
2019-05-20T22:13:07.066Z,11.33
2019-05-20T22:15:55.605Z,10.20
2019-05-20T22:18:24.815Z,7.70
2019-05-20T22:20:54.211Z,9.35
2019-05-20T22:23:33.440Z,9.20
2019-05-20T22:26:02.708Z,9.05
2019-05-20T22:28:31.939Z,11.00
2019-05-20T22:31:18.860Z,8.83
2019-05-20T22:33:48.376Z,7.78
2019-05-20T22:36:23.076Z,8.40
2019-05-20T22:38:54.132Z,8.05
2019-05-20T22:41:23.412Z,8.20
2019-05-20T22:43:52.860Z,10.80
2019-05-20T22:46:31.683Z,9.15
2019-05-20T22:49:20.456Z,10.85
2019-05-20T22:52:09.739Z,9.40
2019-05-20T22:54:39.702Z,10.40
2019-05-20T22:57:18.194Z,11.60
2019-05-20T22:59:52.322Z,14.68
2019-05-20T23:02:21.700Z,8.28
2019-05-20T23:05:06.198Z,8.68
2019-05-20T23:07:35.383Z,7.92
2019-05-20T23:10:04.736Z,7.87
2019-05-20T23:12:34.021Z,8.65
2019-05-20T23:15:03.514Z,8.80
2019-05-20T23:17:32.724Z,7.67
2019-05-20T23:20:01.999Z,7.97
2019-05-20T23:22:32.824Z,8.85
2019-05-20T23:25:02.244Z,8.95
2019-05-20T23:27:31.649Z,11.40
2019-05-20T23:30:01.016Z,8.48
2019-05-20T23:32:30.227Z,8.50
2019-05-20T23:34:59.584Z,9.65
2019-05-20T23:37:28.824Z,8.18
2019-05-20T23:39:58.281Z,11.40
2019-05-20T23:42:27.604Z,8.65
2019-05-20T23:44:56.940Z,8.23
2019-05-20T23:47:26.204Z,9.30
2019-05-20T23:49:55.406Z,7.20
2019-05-20T23:52:24.777Z,9.45
2019-05-20T23:54:54.190Z,8.08
2019-05-20T23:57:23.672Z,8.93
2019-05-20T23:59:53.111Z,8.08
